Hav Nordic — OZ2119 — position and weather

sailwx.info

Track history (hours):
 
Tides and Currents Weather Stations Pressure Air Temp Water Temp Dewpoint Dewpoint Depression Visibility Wind Speed Wind Dir Waves Ship Positions

Hav Nordic

Last reported at 2017-Mar-24 04:25 UTC. Time now 2017-Mar-27 12:30 UTC.
Position N 58°36' E 004°28'.

Length 75 m; draft 6.2 m.

Type: Cargo ship. MMSI: 231812000.

Date/timePositionNaut miles runAvg speedWind from/ knotsBaromVisibWave heightAir tempDewpointWater temp
2017-Mar-24 04:25N 58°36' E 004°28'7 8.2
2017-Mar-24 03:33N 58°33' E 004°40'8 8.1
2017-Mar-24 02:34N 58°31' E 004°55'8 8.3
2017-Mar-24 01:33N 58°28' E 005°10'8 8.2
2017-Mar-24 00:33N 58°26' E 005°25'8 7.8
2017-Mar-23 23:33N 58°21' E 005°36'8 8.2
2017-Mar-23 22:33N 58°15' E 005°48'9 8.6
2017-Mar-23 21:33N 58°10' E 006°01'9 8.7
2017-Mar-23 20:33N 58°04' E 006°14'8 8.4
2017-Mar-23 19:33N 57°60' E 006°27'9 8.6
2017-Mar-23 18:33N 57°56' E 006°42'8 8.5
2017-Mar-23 17:33N 57°53' E 006°57'8 8.3
2017-Mar-23 16:33N 57°51' E 007°12'8 8.1
2017-Mar-23 15:31N 57°49' E 007°27'8 8.2
2017-Mar-23 14:33N 57°50' E 007°42'9 8.6
2017-Mar-23 13:33N 57°50' E 007°58'9 8.9
2017-Mar-23 12:33N 57°49' E 008°15'64 8.7
2017-Mar-23 05:13N 57°48' E 010°15'5 8.1
2017-Mar-23 04:33N 57°48' E 010°25'7 7.3
2017-Mar-23 03:32N 57°47' E 010°39'7 7.2
2017-Mar-23 02:33N 57°45' E 010°51'8 8.3
2017-Mar-23 01:34N 57°39' E 011°03'8 8.4
2017-Mar-23 00:33N 57°34' E 011°14'8 8.5
2017-Mar-22 23:33N 57°28' E 011°26'9 8.8
2017-Mar-22 22:33N 57°20' E 011°31'10 9.1
2017-Mar-22 21:30N 57°11' E 011°37'9 9.3
2017-Mar-22 20:31N 57°02' E 011°43'46 8.6
2017-Mar-22 15:12N 56°18' E 012°06'6 8.8
2017-Mar-22 14:34N 56°15' E 012°14'9 8.5
2017-Mar-22 13:34N 56°10' E 012°27'8 8.0
2017-Mar-22 12:34N 56°04' E 012°38'8 7.8
2017-Mar-22 11:34N 55°57' E 012°43'8 7.9
2017-Mar-22 10:34N 55°49' E 012°43'8 8.3
2017-Mar-22 09:34N 55°41' E 012°41'8 7.6
2017-Mar-22 08:34N 55°34' E 012°42'8 8.3
2017-Mar-22 07:34N 55°25' E 012°42'7 7.5
2017-Mar-22 06:34N 55°18' E 012°45'8 8.2
2017-Mar-22 05:33N 55°14' E 012°57'8 8.0
2017-Mar-22 04:33N 55°09' E 013°08'10 7.9
2017-Mar-22 03:20N 55°03' E 013°22'7 7.4
2017-Mar-22 02:27N 54°59' E 013°31'7 7.7
2017-Mar-22 01:33N 54°55' E 013°41'7 7.4
2017-Mar-22 00:33N 54°51' E 013°51'8 7.6
2017-Mar-21 23:33N 54°46' E 014°01'8 7.7
2017-Mar-21 22:32N 54°41' E 014°12'8 7.7
2017-Mar-21 21:32N 54°38' E 014°24'10 7.8
2017-Mar-21 20:11N 54°39' E 014°42'6 8.1
2017-Mar-21 19:27N 54°40' E 014°52'7 8.1
2017-Mar-21 18:33N 54°41' E 015°04'8 8.2
2017-Mar-21 17:32N 54°42' E 015°19'89 8.0
2017-Mar-21 06:29N 54°56' E 017°51'6 6.9
2017-Mar-21 05:33N 54°57' E 018°02'7 6.8
2017-Mar-21 04:34N 54°57' E 018°14'7 6.9
2017-Mar-21 03:34N 54°58' E 018°26'7 7.2
2017-Mar-21 02:34N 54°56' E 018°38'8 8.3
2017-Mar-21 01:34N 54°50' E 018°49'8 8.4
2017-Mar-21 00:34N 54°44' E 018°59'8 8.5
2017-Mar-20 23:34N 54°36' E 018°55'8 7.8
2017-Mar-20 22:34N 54°32' E 018°44'6 6.2
2017-Mar-20 21:34N 54°32' E 018°33'0 0.0
2017-Mar-20 20:34N 54°32' E 018°33'0 0.0
2017-Mar-20 19:34N 54°32' E 018°33'0 0.0
2017-Mar-20 18:34N 54°32' E 018°33'0 0.0
2017-Mar-20 17:34N 54°32' E 018°33'0 0.0
2017-Mar-20 16:34N 54°32' E 018°33'0 0.0
2017-Mar-20 15:34N 54°32' E 018°33'0 0.0
2017-Mar-20 14:34N 54°32' E 018°33'0 0.0
2017-Mar-20 13:34N 54°32' E 018°33'0 0.0
2017-Mar-20 12:34N 54°32' E 018°33'0 0.0
2017-Mar-20 11:34N 54°32' E 018°33'0 0.0
2017-Mar-20 10:34N 54°32' E 018°33'0 0.0
2017-Mar-20 09:33N 54°32' E 018°33'0 0.0
2017-Mar-20 08:34N 54°32' E 018°33'0 0.0
2017-Mar-20 07:34N 54°32' E 018°33'0 0.0
2017-Mar-20 06:34N 54°32' E 018°33'0 0.0
2017-Mar-20 05:34N 54°32' E 018°33'0 0.0
2017-Mar-20 04:34N 54°32' E 018°33'0 0.0
2017-Mar-20 03:33N 54°32' E 018°33'0 0.0
2017-Mar-20 02:34N 54°32' E 018°33'0 0.0
2017-Mar-20 01:33N 54°32' E 018°33'0 0.0
2017-Mar-20 00:34N 54°32' E 018°33'0 0.0
2017-Mar-19 23:34N 54°32' E 018°33'0 0.0
2017-Mar-19 22:34N 54°32' E 018°33'0 0.0
2017-Mar-19 21:34N 54°32' E 018°33'0 0.0
2017-Mar-19 20:34N 54°32' E 018°33'0 0.0
2017-Mar-19 19:34N 54°32' E 018°33'0 0.0
2017-Mar-19 18:34N 54°32' E 018°33'0 0.0
2017-Mar-19 17:34N 54°32' E 018°33'0 0.0
2017-Mar-19 16:33N 54°32' E 018°33'0 0.0
2017-Mar-19 15:34N 54°32' E 018°33'0 0.0
2017-Mar-19 14:34N 54°32' E 018°33'4 4.1
2017-Mar-19 13:34N 54°32' E 018°40'4 4.0
2017-Mar-19 12:34N 54°32' E 018°47'9 9.3
2017-Mar-19 11:33N 54°40' E 018°56'8 7.6
2017-Mar-19 10:34N 54°47' E 018°53'9 9.2
2017-Mar-19 09:34N 54°54' E 018°41'9 8.6
2017-Mar-19 08:34N 54°57' E 018°27'9 8.8
2017-Mar-19 07:34N 54°57' E 018°12'9 8.5
2017-Mar-19 06:33N 54°55' E 017°57'9 8.5
2017-Mar-19 05:33N 54°54' E 017°43'8 8.2
2017-Mar-19 04:31N 54°53' E 017°28'88 8.8
2017-Mar-18 18:33N 54°38' E 014°58'9 9.0
2017-Mar-18 17:32N 54°37' E 014°43'12 9.5
2017-Mar-18 16:17N 54°36' E 014°22'7 9.5
2017-Mar-18 15:30N 54°39' E 014°11'9 9.8
2017-Mar-18 14:33N 54°44' E 013°58'1010.0
2017-Mar-18 13:32N 54°51' E 013°44'24 9.9
2017-Mar-18 11:07N 55°06' E 013°11'6 9.5
2017-Mar-18 10:32N 55°09' E 013°04'9 9.0
2017-Mar-18 09:34N 55°15' E 012°52'9 8.6
2017-Mar-18 08:33N 55°18' E 012°38'8 7.6
2017-Mar-18 07:33N 55°26' E 012°40'6 6.5
2017-Mar-18 06:34N 55°32' E 012°42'7 7.4
2017-Mar-18 05:34N 55°39' E 012°41'8 7.7
2017-Mar-18 04:34N 55°47' E 012°41'7 7.5
2017-Mar-18 03:34N 55°54' E 012°38'8 7.5
2017-Mar-18 02:34N 56°02' E 012°38'8 8.1
2017-Mar-18 01:33N 56°08' E 012°29'8 8.2
2017-Mar-18 00:34N 56°13' E 012°17'8 7.9
2017-Mar-17 23:33N 56°17' E 012°05'  
Track history (hours):
 
Tides and Currents Weather Stations Pressure Air Temp Water Temp Dewpoint Dewpoint Depression Visibility Wind Speed Wind Dir Waves Ship Positions

Hav Nordic

Last reported at 2017-Mar-24 04:25 UTC. Time now 2017-Mar-27 12:30 UTC.
Position N 58°36' E 004°28'.

Length 75 m; draft 6.2 m.

Type: Cargo ship. MMSI: 231812000.

Date/timePositionNaut miles runAvg speedWind from/ knotsBaromVisibWave heightAir tempDewpointWater temp
2017-Mar-24 04:25N 58°36' E 004°28'7 8.2
2017-Mar-24 03:33N 58°33' E 004°40'8 8.1
2017-Mar-24 02:34N 58°31' E 004°55'8 8.3
2017-Mar-24 01:33N 58°28' E 005°10'8 8.2
2017-Mar-24 00:33N 58°26' E 005°25'8 7.8
2017-Mar-23 23:33N 58°21' E 005°36'8 8.2
2017-Mar-23 22:33N 58°15' E 005°48'9 8.6
2017-Mar-23 21:33N 58°10' E 006°01'9 8.7
2017-Mar-23 20:33N 58°04' E 006°14'8 8.4
2017-Mar-23 19:33N 57°60' E 006°27'9 8.6
2017-Mar-23 18:33N 57°56' E 006°42'8 8.5
2017-Mar-23 17:33N 57°53' E 006°57'8 8.3
2017-Mar-23 16:33N 57°51' E 007°12'8 8.1
2017-Mar-23 15:31N 57°49' E 007°27'8 8.2
2017-Mar-23 14:33N 57°50' E 007°42'9 8.6
2017-Mar-23 13:33N 57°50' E 007°58'9 8.9
2017-Mar-23 12:33N 57°49' E 008°15'64 8.7
2017-Mar-23 05:13N 57°48' E 010°15'5 8.1
2017-Mar-23 04:33N 57°48' E 010°25'7 7.3
2017-Mar-23 03:32N 57°47' E 010°39'7 7.2
2017-Mar-23 02:33N 57°45' E 010°51'8 8.3
2017-Mar-23 01:34N 57°39' E 011°03'8 8.4
2017-Mar-23 00:33N 57°34' E 011°14'8 8.5
2017-Mar-22 23:33N 57°28' E 011°26'9 8.8
2017-Mar-22 22:33N 57°20' E 011°31'10 9.1
2017-Mar-22 21:30N 57°11' E 011°37'9 9.3
2017-Mar-22 20:31N 57°02' E 011°43'46 8.6
2017-Mar-22 15:12N 56°18' E 012°06'6 8.8
2017-Mar-22 14:34N 56°15' E 012°14'9 8.5
2017-Mar-22 13:34N 56°10' E 012°27'8 8.0
2017-Mar-22 12:34N 56°04' E 012°38'8 7.8
2017-Mar-22 11:34N 55°57' E 012°43'8 7.9
2017-Mar-22 10:34N 55°49' E 012°43'8 8.3
2017-Mar-22 09:34N 55°41' E 012°41'8 7.6
2017-Mar-22 08:34N 55°34' E 012°42'8 8.3
2017-Mar-22 07:34N 55°25' E 012°42'7 7.5
2017-Mar-22 06:34N 55°18' E 012°45'8 8.2
2017-Mar-22 05:33N 55°14' E 012°57'8 8.0
2017-Mar-22 04:33N 55°09' E 013°08'10 7.9
2017-Mar-22 03:20N 55°03' E 013°22'7 7.4
2017-Mar-22 02:27N 54°59' E 013°31'7 7.7
2017-Mar-22 01:33N 54°55' E 013°41'7 7.4
2017-Mar-22 00:33N 54°51' E 013°51'8 7.6
2017-Mar-21 23:33N 54°46' E 014°01'8 7.7
2017-Mar-21 22:32N 54°41' E 014°12'8 7.7
2017-Mar-21 21:32N 54°38' E 014°24'10 7.8
2017-Mar-21 20:11N 54°39' E 014°42'6 8.1
2017-Mar-21 19:27N 54°40' E 014°52'7 8.1
2017-Mar-21 18:33N 54°41' E 015°04'8 8.2
2017-Mar-21 17:32N 54°42' E 015°19'89 8.0
2017-Mar-21 06:29N 54°56' E 017°51'6 6.9
2017-Mar-21 05:33N 54°57' E 018°02'7 6.8
2017-Mar-21 04:34N 54°57' E 018°14'7 6.9
2017-Mar-21 03:34N 54°58' E 018°26'7 7.2
2017-Mar-21 02:34N 54°56' E 018°38'8 8.3
2017-Mar-21 01:34N 54°50' E 018°49'8 8.4
2017-Mar-21 00:34N 54°44' E 018°59'8 8.5
2017-Mar-20 23:34N 54°36' E 018°55'8 7.8
2017-Mar-20 22:34N 54°32' E 018°44'6 6.2
2017-Mar-20 21:34N 54°32' E 018°33'0 0.0
2017-Mar-20 20:34N 54°32' E 018°33'0 0.0
2017-Mar-20 19:34N 54°32' E 018°33'0 0.0
2017-Mar-20 18:34N 54°32' E 018°33'0 0.0
2017-Mar-20 17:34N 54°32' E 018°33'0 0.0
2017-Mar-20 16:34N 54°32' E 018°33'0 0.0
2017-Mar-20 15:34N 54°32' E 018°33'0 0.0
2017-Mar-20 14:34N 54°32' E 018°33'0 0.0
2017-Mar-20 13:34N 54°32' E 018°33'0 0.0
2017-Mar-20 12:34N 54°32' E 018°33'0 0.0
2017-Mar-20 11:34N 54°32' E 018°33'0 0.0
2017-Mar-20 10:34N 54°32' E 018°33'0 0.0
2017-Mar-20 09:33N 54°32' E 018°33'0 0.0
2017-Mar-20 08:34N 54°32' E 018°33'0 0.0
2017-Mar-20 07:34N 54°32' E 018°33'0 0.0
2017-Mar-20 06:34N 54°32' E 018°33'0 0.0
2017-Mar-20 05:34N 54°32' E 018°33'0 0.0
2017-Mar-20 04:34N 54°32' E 018°33'0 0.0
2017-Mar-20 03:33N 54°32' E 018°33'0 0.0
2017-Mar-20 02:34N 54°32' E 018°33'0 0.0
2017-Mar-20 01:33N 54°32' E 018°33'0 0.0
2017-Mar-20 00:34N 54°32' E 018°33'0 0.0
2017-Mar-19 23:34N 54°32' E 018°33'0 0.0
2017-Mar-19 22:34N 54°32' E 018°33'0 0.0
2017-Mar-19 21:34N 54°32' E 018°33'0 0.0
2017-Mar-19 20:34N 54°32' E 018°33'0 0.0
2017-Mar-19 19:34N 54°32' E 018°33'0 0.0
2017-Mar-19 18:34N 54°32' E 018°33'0 0.0
2017-Mar-19 17:34N 54°32' E 018°33'0 0.0
2017-Mar-19 16:33N 54°32' E 018°33'0 0.0
2017-Mar-19 15:34N 54°32' E 018°33'0 0.0
2017-Mar-19 14:34N 54°32' E 018°33'4 4.1
2017-Mar-19 13:34N 54°32' E 018°40'4 4.0
2017-Mar-19 12:34N 54°32' E 018°47'9 9.3
2017-Mar-19 11:33N 54°40' E 018°56'8 7.6
2017-Mar-19 10:34N 54°47' E 018°53'9 9.2
2017-Mar-19 09:34N 54°54' E 018°41'9 8.6
2017-Mar-19 08:34N 54°57' E 018°27'9 8.8
2017-Mar-19 07:34N 54°57' E 018°12'9 8.5
2017-Mar-19 06:33N 54°55' E 017°57'9 8.5
2017-Mar-19 05:33N 54°54' E 017°43'8 8.2
2017-Mar-19 04:31N 54°53' E 017°28'88 8.8
2017-Mar-18 18:33N 54°38' E 014°58'9 9.0
2017-Mar-18 17:32N 54°37' E 014°43'12 9.5
2017-Mar-18 16:17N 54°36' E 014°22'7 9.5
2017-Mar-18 15:30N 54°39' E 014°11'9 9.8
2017-Mar-18 14:33N 54°44' E 013°58'1010.0
2017-Mar-18 13:32N 54°51' E 013°44'24 9.9
2017-Mar-18 11:07N 55°06' E 013°11'6 9.5
2017-Mar-18 10:32N 55°09' E 013°04'9 9.0
2017-Mar-18 09:34N 55°15' E 012°52'9 8.6
2017-Mar-18 08:33N 55°18' E 012°38'8 7.6
2017-Mar-18 07:33N 55°26' E 012°40'6 6.5
2017-Mar-18 06:34N 55°32' E 012°42'7 7.4
2017-Mar-18 05:34N 55°39' E 012°41'8 7.7
2017-Mar-18 04:34N 55°47' E 012°41'7 7.5
2017-Mar-18 03:34N 55°54' E 012°38'8 7.5
2017-Mar-18 02:34N 56°02' E 012°38'8 8.1
2017-Mar-18 01:33N 56°08' E 012°29'8 8.2
2017-Mar-18 00:34N 56°13' E 012°17'8 7.9
2017-Mar-17 23:33N 56°17' E 012°05'  

Dump ship's entire track history